Time;durP1;ratioP1;P1;durP2;ratioP2;P2;SDS_P1;SDS_P2;PMS_P1;PMS_P2;Temp;Humidity;BMP_temperature;BMP_pressure;BME280_temperature;BME280_humidity;BME280_pressure;Samples;Min_cycle;Max_cycle;Signal;HPM_P1;HPM_P2
2021/09/05 00:00:01;;;;;;;29.63;27.43;;;15.80;86.00;;;;;;5001861;28;22221;-71
2021/09/05 00:02:28;;;;;;;29.20;27.20;;;15.90;85.50;;;;;;4998908;28;20460;-71
2021/09/05 00:04:55;;;;;;;29.67;27.77;;;15.80;85.40;;;;;;5005133;28;20511;-70
2021/09/05 00:07:22;;;;;;;30.17;28.07;;;15.80;85.50;;;;;;5003444;28;22421;-70
2021/09/05 00:09:50;;;;;;;29.83;27.80;;;15.80;85.60;;;;;;5001279;28;20847;-70
2021/09/05 00:12:17;;;;;;;30.30;28.40;;;15.70;85.80;;;;;;4998136;28;20469;-70
2021/09/05 00:14:44;;;;;;;29.73;27.73;;;15.70;85.70;;;;;;5000382;28;20539;-71
2021/09/05 00:17:10;;;;;;;29.13;27.23;;;15.70;85.80;;;;;;4999760;28;20468;-70
2021/09/05 00:19:37;;;;;;;30.43;28.23;;;15.60;85.80;;;;;;5003351;28;20487;-70
2021/09/05 00:22:04;;;;;;;29.47;27.63;;;15.60;86.00;;;;;;5001988;28;20549;-71
2021/09/05 00:24:31;;;;;;;29.70;27.70;;;15.60;85.90;;;;;;5001780;28;20472;-70
2021/09/05 00:27:00;;;;;;;28.50;26.70;;;15.60;85.90;;;;;;4999067;28;20558;-70
2021/09/05 00:29:27;;;;;;;30.23;28.23;;;15.60;86.00;;;;;;4998000;28;20484;-71
2021/09/05 00:31:54;;;;;;;29.10;27.10;;;15.60;86.00;;;;;;5003449;28;20466;-71
2021/09/05 00:34:21;;;;;;;29.40;27.37;;;15.60;86.00;;;;;;5005615;28;20516;-71
2021/09/05 00:36:48;;;;;;;30.23;27.67;;;15.60;85.90;;;;;;5001938;28;20467;-71
2021/09/05 00:39:15;;;;;;;29.73;27.83;;;15.60;85.80;;;;;;4995127;28;20473;-71
2021/09/05 00:41:42;;;;;;;30.50;28.60;;;15.60;85.90;;;;;;5000167;28;20457;-71
2021/09/05 00:44:11;;;;;;;28.70;26.90;;;15.50;86.30;;;;;;4996035;28;20446;-71
2021/09/05 00:46:40;;;;;;;29.77;27.90;;;15.50;86.30;;;;;;4993166;28;20469;-71
2021/09/05 00:49:08;;;;;;;30.00;27.93;;;15.50;86.60;;;;;;4994117;28;21293;-71
2021/09/05 00:51:36;;;;;;;28.90;27.07;;;15.50;86.40;;;;;;5003470;28;20556;-71
2021/09/05 00:54:05;;;;;;;29.57;27.67;;;15.40;86.60;;;;;;5002492;28;20480;-71
2021/09/05 00:56:34;;;;;;;29.57;27.67;;;15.40;87.10;;;;;;5003889;28;20545;-71
2021/09/05 00:59:06;;;;;;;28.07;26.27;;;15.40;87.20;;;;;;4992642;28;20480;-71
2021/09/05 01:01:35;;;;;;;28.03;26.23;;;15.40;86.90;;;;;;4995862;28;20952;-71
2021/09/05 01:04:02;;;;;;;28.57;26.77;;;15.40;86.70;;;;;;5000155;28;20453;-71
2021/09/05 01:06:29;;;;;;;29.20;27.30;;;15.30;86.80;;;;;;4997290;28;20461;-71
2021/09/05 01:08:58;;;;;;;30.43;28.33;;;15.30;86.80;;;;;;5002055;28;20481;-71
2021/09/05 01:11:25;;;;;;;29.20;27.40;;;15.30;87.00;;;;;;4999951;28;20466;-71
2021/09/05 01:13:52;;;;;;;28.77;26.97;;;15.30;87.10;;;;;;4991763;28;20478;-71
2021/09/05 01:16:26;;;;;;;29.33;27.37;;;15.30;87.00;;;;;;5004221;28;20466;-71
2021/09/05 01:18:55;;;;;;;28.73;26.93;;;15.30;86.90;;;;;;4993589;28;20812;-71
2021/09/05 01:21:22;;;;;;;27.60;25.80;;;15.30;86.90;;;;;;5007537;28;20562;-71
2021/09/05 01:23:49;;;;;;;29.93;27.93;;;15.20;87.20;;;;;;5004836;28;20484;-71
2021/09/05 01:26:16;;;;;;;30.10;28.10;;;15.20;87.20;;;;;;5004804;28;20463;-71
2021/09/05 01:28:45;;;;;;;30.33;28.20;;;15.10;87.40;;;;;;5006088;28;20477;-71
2021/09/05 01:31:13;;;;;;;29.47;27.37;;;15.10;87.50;;;;;;4994431;28;20948;-71
2021/09/05 01:33:40;;;;;;;29.27;27.30;;;15.20;87.40;;;;;;4997720;28;20482;-71
2021/09/05 01:36:07;;;;;;;30.37;28.27;;;15.20;87.50;;;;;;5009335;28;20456;-71
2021/09/05 01:38:34;;;;;;;28.93;26.87;;;15.20;87.50;;;;;;5004127;28;20498;-71
2021/09/05 01:41:01;;;;;;;28.30;26.30;;;15.10;88.10;;;;;;5002903;28;20467;-72
2021/09/05 01:43:28;;;;;;;29.80;27.70;;;15.10;88.10;;;;;;5003160;28;20468;-71
2021/09/05 01:45:56;;;;;;;30.10;28.13;;;15.10;87.90;;;;;;5004925;28;20449;-71
2021/09/05 01:48:23;;;;;;;29.47;27.63;;;15.10;88.30;;;;;;4994764;28;20572;-71
2021/09/05 01:50:50;;;;;;;31.00;28.80;;;15.00;88.40;;;;;;5004361;28;20535;-70
2021/09/05 01:53:17;;;;;;;28.13;26.50;;;15.00;88.60;;;;;;5004265;28;20602;-70
2021/09/05 01:55:44;;;;;;;30.63;28.43;;;15.00;88.80;;;;;;4995576;28;21184;-70
2021/09/05 01:58:10;;;;;;;29.50;27.10;;;15.00;88.90;;;;;;5005703;28;20991;-71
2021/09/05 02:00:37;;;;;;;29.00;27.03;;;15.10;89.10;;;;;;4998957;28;20461;-70
2021/09/05 02:03:06;;;;;;;29.80;27.70;;;15.10;88.70;;;;;;5002928;28;20453;-70
2021/09/05 02:05:33;;;;;;;30.67;28.57;;;15.10;88.80;;;;;;5006745;28;20855;-70
2021/09/05 02:08:01;;;;;;;30.53;28.33;;;15.00;89.00;;;;;;4995395;28;20464;-70
2021/09/05 02:10:28;;;;;;;29.10;27.30;;;15.10;88.80;;;;;;5002283;28;20540;-71
2021/09/05 02:12:55;;;;;;;28.57;26.80;;;15.10;88.90;;;;;;4997543;28;20876;-70
2021/09/05 02:15:21;;;;;;;30.10;28.17;;;15.10;88.90;;;;;;4997589;28;20540;-70
2021/09/05 02:17:48;;;;;;;29.53;27.70;;;15.10;88.70;;;;;;4990706;28;20462;-70
2021/09/05 02:20:17;;;;;;;30.20;28.30;;;15.00;88.80;;;;;;5008922;28;20855;-71
2021/09/05 02:22:44;;;;;;;31.07;28.73;;;15.00;88.80;;;;;;5004450;28;20944;-70
2021/09/05 02:25:11;;;;;;;32.43;30.33;;;15.10;89.10;;;;;;5003817;28;20464;-70
2021/09/05 02:27:38;;;;;;;32.27;30.07;;;15.00;89.10;;;;;;5002849;28;20457;-70
2021/09/05 02:30:05;;;;;;;31.30;29.20;;;15.00;89.10;;;;;;5005768;28;20480;-70
2021/09/05 02:32:32;;;;;;;31.63;29.47;;;15.00;89.00;;;;;;5001264;28;20457;-70
2021/09/05 02:34:59;;;;;;;30.10;28.20;;;15.00;89.00;;;;;;4999870;28;20498;-70
2021/09/05 02:37:27;;;;;;;30.60;28.50;;;15.00;89.40;;;;;;5005510;28;20561;-70
2021/09/05 02:39:54;;;;;;;30.27;28.37;;;15.00;89.30;;;;;;4994001;28;20477;-70
2021/09/05 02:42:21;;;;;;;30.47;28.40;;;15.00;89.20;;;;;;4998913;28;20498;-70
2021/09/05 02:44:48;;;;;;;32.37;30.17;;;15.00;89.10;;;;;;4999660;28;20591;-70
2021/09/05 02:47:15;;;;;;;30.60;28.33;;;15.00;89.20;;;;;;4996821;28;20553;-70
2021/09/05 02:49:42;;;;;;;30.53;28.27;;;15.00;89.30;;;;;;5004552;28;20583;-70
2021/09/05 02:52:09;;;;;;;31.97;29.07;;;15.00;89.10;;;;;;5005636;28;20486;-70
2021/09/05 02:54:38;;;;;;;30.03;28.10;;;15.00;88.80;;;;;;5005289;28;20484;-70
2021/09/05 02:57:05;;;;;;;30.77;28.67;;;15.00;88.80;;;;;;4997075;28;20608;-71
2021/09/05 02:59:32;;;;;;;32.43;30.07;;;14.90;88.90;;;;;;4995279;28;20516;-70
2021/09/05 03:01:59;;;;;;;31.00;28.60;;;14.90;89.00;;;;;;5000492;28;20545;-70
2021/09/05 03:04:27;;;;;;;31.47;29.37;;;14.90;88.80;;;;;;5005722;28;20468;-70
2021/09/05 03:06:54;;;;;;;31.17;29.07;;;14.90;88.60;;;;;;4996613;28;20457;-70
2021/09/05 03:09:21;;;;;;;30.13;28.13;;;14.90;88.50;;;;;;4994805;28;20955;-70
2021/09/05 03:11:49;;;;;;;31.10;28.97;;;14.90;88.70;;;;;;4993201;28;20587;-70
2021/09/05 03:14:16;;;;;;;31.60;29.50;;;14.80;89.00;;;;;;4993883;28;20486;-70
2021/09/05 03:16:43;;;;;;;31.07;29.07;;;14.70;89.40;;;;;;4990807;28;20564;-70
2021/09/05 03:19:11;;;;;;;29.60;27.70;;;14.70;89.50;;;;;;4994338;28;20494;-70
2021/09/05 03:21:39;;;;;;;29.93;28.03;;;14.80;88.90;;;;;;4993913;28;20468;-70
2021/09/05 03:24:06;;;;;;;30.93;28.77;;;14.70;88.80;;;;;;4990706;28;20457;-70
2021/09/05 03:26:33;;;;;;;29.70;27.60;;;14.70;88.90;;;;;;4990728;28;22288;-70
2021/09/05 03:29:02;;;;;;;30.37;28.47;;;14.70;89.00;;;;;;4989689;28;20495;-71
2021/09/05 03:31:28;;;;;;;29.90;27.90;;;14.70;88.90;;;;;;4992788;28;20486;-70
2021/09/05 03:33:55;;;;;;;29.77;27.97;;;14.60;88.90;;;;;;4993979;28;22351;-70
2021/09/05 03:36:22;;;;;;;30.73;28.43;;;14.60;89.00;;;;;;4995774;28;20461;-70
2021/09/05 03:38:49;;;;;;;30.30;28.23;;;14.60;89.10;;;;;;4995208;28;20487;-70
2021/09/05 03:41:16;;;;;;;31.17;28.90;;;14.60;88.80;;;;;;4990894;28;20456;-70
2021/09/05 03:43:43;;;;;;;30.07;28.07;;;14.60;88.60;;;;;;4988089;28;20457;-70
2021/09/05 03:46:12;;;;;;;28.93;27.03;;;14.50;88.70;;;;;;4996812;28;20469;-70
2021/09/05 03:48:39;;;;;;;29.80;27.50;;;14.50;89.10;;;;;;4991870;28;20483;-70
2021/09/05 03:51:06;;;;;;;29.73;27.83;;;14.40;89.20;;;;;;4993997;28;20465;-69
2021/09/05 03:53:32;;;;;;;29.70;27.30;;;14.30;89.50;;;;;;4992353;28;20474;-71
2021/09/05 03:55:59;;;;;;;29.03;27.30;;;14.30;89.80;;;;;;4993652;28;20909;-71
2021/09/05 03:58:26;;;;;;;30.10;28.10;;;14.30;89.80;;;;;;4993950;28;20481;-71
2021/09/05 04:00:53;;;;;;;29.67;27.67;;;14.30;89.70;;;;;;4990817;28;20457;-70
2021/09/05 04:03:23;;;;;;;29.40;27.40;;;14.40;89.40;;;;;;4991094;28;20463;-71
2021/09/05 04:05:50;;;;;;;28.23;26.43;;;14.40;89.10;;;;;;4993940;28;20556;-71
2021/09/05 04:08:17;;;;;;;29.37;27.57;;;14.30;89.00;;;;;;4990440;28;21111;-71
2021/09/05 04:10:44;;;;;;;29.40;27.20;;;14.30;89.10;;;;;;5003184;28;21027;-71
2021/09/05 04:13:13;;;;;;;29.37;27.30;;;14.30;89.10;;;;;;5004681;28;20469;-71
2021/09/05 04:15:40;;;;;;;28.93;26.93;;;14.20;89.40;;;;;;5002509;28;20472;-71
2021/09/05 04:18:08;;;;;;;29.00;27.00;;;14.10;89.70;;;;;;4998924;28;20564;-71
2021/09/05 04:20:36;;;;;;;29.47;27.57;;;14.00;90.10;;;;;;5001949;28;20458;-71
2021/09/05 04:23:03;;;;;;;28.80;26.87;;;14.00;90.40;;;;;;4996726;28;20608;-71
2021/09/05 04:25:30;;;;;;;29.50;27.50;;;14.00;90.50;;;;;;4994198;28;20536;-71
2021/09/05 04:27:56;;;;;;;29.33;27.40;;;14.00;90.10;;;;;;4991418;28;20466;-71
2021/09/05 04:30:23;;;;;;;28.80;27.00;;;14.00;90.00;;;;;;4995138;28;20456;-71
2021/09/05 04:32:51;;;;;;;28.13;26.27;;;14.00;89.90;;;;;;4991717;28;20551;-70
2021/09/05 04:35:18;;;;;;;29.20;27.10;;;14.00;89.90;;;;;;4992495;28;20485;-71
2021/09/05 04:37:46;;;;;;;29.67;27.40;;;14.00;89.90;;;;;;4996517;28;20572;-70
2021/09/05 04:40:14;;;;;;;29.43;27.47;;;14.00;89.80;;;;;;4992476;28;20463;-70
2021/09/05 04:42:41;;;;;;;29.97;28.07;;;14.00;89.70;;;;;;4993184;28;20452;-70
2021/09/05 04:45:09;;;;;;;29.70;27.80;;;14.00;89.70;;;;;;4993794;28;20449;-70
2021/09/05 04:47:36;;;;;;;28.60;26.60;;;14.00;89.70;;;;;;4992347;28;20476;-70
2021/09/05 04:50:04;;;;;;;29.40;27.50;;;14.00;89.90;;;;;;4993246;28;21039;-70
2021/09/05 04:52:30;;;;;;;28.83;26.93;;;13.90;90.40;;;;;;4996170;28;20468;-70
2021/09/05 04:54:59;;;;;;;29.40;27.60;;;13.90;90.50;;;;;;4994529;28;20488;-70
2021/09/05 04:57:26;;;;;;;29.10;27.17;;;13.90;90.70;;;;;;4999406;28;20487;-70
2021/09/05 04:59:53;;;;;;;28.83;27.00;;;13.90;90.60;;;;;;5003764;28;20553;-70
2021/09/05 05:02:20;;;;;;;29.30;27.40;;;13.90;90.50;;;;;;4999321;28;20476;-71
2021/09/05 05:04:47;;;;;;;30.47;28.27;;;13.90;90.50;;;;;;4997115;28;20459;-71
2021/09/05 05:07:14;;;;;;;29.30;27.30;;;14.00;90.60;;;;;;4995423;28;20476;-71
2021/09/05 05:09:44;;;;;;;28.37;26.40;;;14.00;90.70;;;;;;4997567;28;20488;-71
2021/09/05 05:12:13;;;;;;;29.70;27.70;;;14.10;90.60;;;;;;4993728;28;20471;-71
2021/09/05 05:14:40;;;;;;;28.80;26.80;;;14.10;90.50;;;;;;4998925;28;20487;-71
2021/09/05 05:17:07;;;;;;;29.10;27.00;;;14.20;90.20;;;;;;4995131;28;20467;-71
2021/09/05 05:19:34;;;;;;;28.50;26.70;;;14.20;89.90;;;;;;4997020;28;20476;-71
2021/09/05 05:22:01;;;;;;;29.87;27.53;;;14.20;89.70;;;;;;4997691;28;20543;-71
2021/09/05 05:24:28;;;;;;;27.70;25.90;;;14.10;89.70;;;;;;4996546;28;20539;-71
2021/09/05 05:26:55;;;;;;;29.80;27.40;;;14.20;89.60;;;;;;5010332;28;20461;-71
2021/09/05 05:29:23;;;;;;;29.80;27.67;;;14.30;89.50;;;;;;4994560;28;20949;-71
2021/09/05 05:31:50;;;;;;;30.83;28.50;;;14.30;89.60;;;;;;4999488;28;20488;-71
2021/09/05 05:34:17;;;;;;;29.33;27.33;;;14.30;89.80;;;;;;4998702;28;20469;-70
2021/09/05 05:36:44;;;;;;;30.33;28.07;;;14.30;89.90;;;;;;5002785;28;20476;-70
2021/09/05 05:39:11;;;;;;;31.73;29.43;;;14.40;89.80;;;;;;5002302;28;20987;-71
2021/09/05 05:41:38;;;;;;;29.30;27.47;;;14.50;89.70;;;;;;4998630;28;20460;-71
2021/09/05 05:44:05;;;;;;;29.50;27.40;;;14.60;89.20;;;;;;4993419;28;20467;-71
2021/09/05 05:46:33;;;;;;;29.90;28.00;;;14.70;88.80;;;;;;4997573;28;20473;-71
2021/09/05 05:49:00;;;;;;;29.40;27.30;;;14.90;88.10;;;;;;4996845;28;20481;-71
2021/09/05 05:51:27;;;;;;;29.17;27.20;;;14.90;87.90;;;;;;5000956;28;20457;-71
2021/09/05 05:53:54;;;;;;;28.70;26.60;;;14.90;87.70;;;;;;4994241;28;20460;-71
2021/09/05 05:56:21;;;;;;;30.37;28.27;;;14.90;87.80;;;;;;4994672;28;20473;-71
2021/09/05 05:58:48;;;;;;;28.30;26.37;;;14.90;88.20;;;;;;4991637;28;20572;-71
2021/09/05 06:01:15;;;;;;;29.87;27.87;;;14.90;88.30;;;;;;4994811;28;20471;-71
2021/09/05 06:03:43;;;;;;;30.50;28.40;;;15.00;88.50;;;;;;4995607;28;20548;-71
2021/09/05 06:06:10;;;;;;;30.90;28.90;;;15.10;88.50;;;;;;4991901;28;20474;-71
2021/09/05 06:08:37;;;;;;;29.97;27.97;;;15.10;88.60;;;;;;4995196;28;20495;-71
2021/09/05 06:11:04;;;;;;;30.63;28.63;;;15.30;88.20;;;;;;5001498;28;20934;-71
2021/09/05 06:13:31;;;;;;;30.60;28.53;;;15.40;87.90;;;;;;4990727;28;20957;-71
2021/09/05 06:15:58;;;;;;;30.93;28.70;;;15.50;87.80;;;;;;4997472;28;21028;-71
2021/09/05 06:18:25;;;;;;;32.90;30.47;;;15.70;87.50;;;;;;4999429;28;20477;-71
2021/09/05 06:20:54;;;;;;;30.60;28.50;;;15.80;87.10;;;;;;4996364;28;20468;-72
2021/09/05 06:23:21;;;;;;;34.27;31.73;;;15.90;86.80;;;;;;4993895;28;21101;-71
2021/09/05 06:25:48;;;;;;;33.67;31.30;;;15.90;86.40;;;;;;4995963;28;20974;-72
2021/09/05 06:28:15;;;;;;;33.90;31.47;;;16.00;86.30;;;;;;4991204;28;20481;-73
2021/09/05 06:30:42;;;;;;;35.07;32.77;;;16.10;86.20;;;;;;4992457;28;20548;-72
2021/09/05 06:33:09;;;;;;;34.97;32.30;;;16.20;86.00;;;;;;4991425;28;20504;-72
2021/09/05 06:35:36;;;;;;;31.83;29.73;;;16.20;85.80;;;;;;4994172;28;20600;-73
2021/09/05 06:38:04;;;;;;;32.77;30.57;;;16.30;85.70;;;;;;4999612;28;20535;-72
2021/09/05 06:40:31;;;;;;;31.97;29.77;;;16.40;85.30;;;;;;4999514;28;20544;-70
2021/09/05 06:42:58;;;;;;;33.50;31.30;;;16.60;85.00;;;;;;4991149;28;20481;-71
2021/09/05 06:45:25;;;;;;;32.30;30.23;;;16.60;84.50;;;;;;4992430;28;20462;-70
2021/09/05 06:47:52;;;;;;;32.00;29.80;;;16.70;84.40;;;;;;4996536;28;20473;-70
2021/09/05 06:50:19;;;;;;;32.60;30.50;;;16.80;84.20;;;;;;5000228;28;21059;-70
2021/09/05 06:52:46;;;;;;;32.30;30.20;;;17.00;84.00;;;;;;4999297;28;20456;-70
2021/09/05 06:55:14;;;;;;;32.33;30.03;;;17.00;83.70;;;;;;4999309;28;21048;-70
2021/09/05 06:57:41;;;;;;;32.13;29.90;;;17.10;83.40;;;;;;5007562;28;21293;-70
2021/09/05 07:00:09;;;;;;;35.07;32.47;;;17.20;82.90;;;;;;4998431;28;21011;-71
2021/09/05 07:02:36;;;;;;;34.03;31.63;;;17.30;82.70;;;;;;5001769;28;20890;-72
2021/09/05 07:05:03;;;;;;;32.63;30.53;;;17.50;82.20;;;;;;4994579;28;20471;-71
2021/09/05 07:07:29;;;;;;;31.13;28.93;;;17.60;81.70;;;;;;4999822;28;20556;-71
2021/09/05 07:09:56;;;;;;;32.33;30.23;;;17.70;81.30;;;;;;5007843;28;20470;-71
2021/09/05 07:12:25;;;;;;;32.47;30.30;;;17.80;81.10;;;;;;5005082;28;20467;-71
2021/09/05 07:14:51;;;;;;;32.30;30.20;;;17.90;80.50;;;;;;5003700;28;20488;-71
2021/09/05 07:17:18;;;;;;;34.20;32.00;;;18.00;80.20;;;;;;5004047;28;20465;-71
2021/09/05 07:19:45;;;;;;;32.60;30.13;;;18.10;79.70;;;;;;4995972;28;22297;-71
2021/09/05 07:22:12;;;;;;;32.43;30.33;;;18.10;79.30;;;;;;5005838;28;20531;-71
2021/09/05 07:24:39;;;;;;;33.23;31.03;;;18.20;79.20;;;;;;5002518;28;20461;-70
2021/09/05 07:27:06;;;;;;;32.40;30.23;;;18.30;78.90;;;;;;4995156;28;20474;-69
2021/09/05 07:29:35;;;;;;;32.43;30.27;;;18.40;78.80;;;;;;4997085;28;20538;-71
2021/09/05 07:32:04;;;;;;;34.20;31.80;;;18.60;78.70;;;;;;4999507;28;20939;-69
2021/09/05 07:34:31;;;;;;;34.10;31.80;;;18.70;78.00;;;;;;4996317;28;20458;-70
2021/09/05 07:36:58;;;;;;;33.90;31.70;;;18.80;77.80;;;;;;5004162;28;20457;-70
2021/09/05 07:39:24;;;;;;;32.30;30.30;;;18.80;77.50;;;;;;4998698;28;20480;-70
2021/09/05 07:41:52;;;;;;;32.50;30.40;;;19.00;77.10;;;;;;4993668;28;20463;-69
2021/09/05 07:44:18;;;;;;;35.23;32.77;;;19.00;76.40;;;;;;5000297;28;20560;-71
2021/09/05 07:46:47;;;;;;;33.10;31.00;;;19.10;76.20;;;;;;4996971;28;20476;-70
2021/09/05 07:49:19;;;;;;;34.93;32.43;;;19.10;76.20;;;;;;4996193;28;20489;-71
2021/09/05 07:51:46;;;;;;;34.07;31.50;;;19.20;75.70;;;;;;4996159;28;20847;-72
2021/09/05 07:54:13;;;;;;;35.13;32.73;;;19.30;75.70;;;;;;4998978;28;20477;-71
2021/09/05 07:56:40;;;;;;;34.53;32.13;;;19.40;75.40;;;;;;5003998;28;20483;-73
2021/09/05 07:59:07;;;;;;;34.20;31.80;;;19.40;75.50;;;;;;4990913;28;20986;-75
2021/09/05 08:01:34;;;;;;;33.73;31.33;;;19.60;75.10;;;;;;4999382;28;20568;-74
2021/09/05 08:04:02;;;;;;;35.73;33.00;;;19.60;74.90;;;;;;4997922;28;20467;-74
2021/09/05 08:06:32;;;;;;;34.50;32.20;;;19.70;74.70;;;;;;5001233;28;20824;-71
2021/09/05 08:08:59;;;;;;;32.67;30.47;;;19.80;74.20;;;;;;5002849;28;20488;-71
2021/09/05 08:11:26;;;;;;;32.43;30.43;;;19.90;73.60;;;;;;4998578;28;20471;-71
2021/09/05 08:13:53;;;;;;;31.93;29.90;;;20.00;73.40;;;;;;4994233;28;20553;-70
2021/09/05 08:16:20;;;;;;;33.83;31.60;;;20.10;73.30;;;;;;4998370;28;20473;-70
2021/09/05 08:18:48;;;;;;;33.03;30.90;;;20.20;73.10;;;;;;4991280;28;20473;-70
2021/09/05 08:21:16;;;;;;;33.23;30.90;;;20.20;73.10;;;;;;4999387;28;21034;-70
2021/09/05 08:23:44;;;;;;;33.77;31.20;;;20.20;72.90;;;;;;4988842;28;21005;-71
2021/09/05 08:26:12;;;;;;;35.70;33.37;;;20.30;72.90;;;;;;4990618;28;20540;-71
2021/09/05 08:28:39;;;;;;;32.70;30.60;;;20.30;72.90;;;;;;4991294;28;20500;-70
2021/09/05 08:31:06;;;;;;;33.27;30.80;;;20.50;72.80;;;;;;5004661;28;20561;-70
2021/09/05 08:33:33;;;;;;;33.40;31.20;;;20.60;72.50;;;;;;5004436;28;20543;-70
2021/09/05 08:36:00;;;;;;;32.63;30.43;;;20.60;72.40;;;;;;5011236;28;20498;-70
2021/09/05 08:38:28;;;;;;;33.87;31.57;;;20.60;72.10;;;;;;5009283;28;20476;-70
2021/09/05 08:40:55;;;;;;;33.23;30.93;;;20.60;72.20;;;;;;4999340;28;20467;-69
2021/09/05 08:43:22;;;;;;;32.40;30.37;;;20.70;72.30;;;;;;5004469;28;20465;-69
2021/09/05 08:45:50;;;;;;;34.67;32.57;;;20.80;72.20;;;;;;5005214;28;20453;-69
2021/09/05 08:48:19;;;;;;;33.17;30.80;;;20.80;72.10;;;;;;4996010;28;20516;-70
2021/09/05 08:50:47;;;;;;;33.90;31.60;;;20.80;72.30;;;;;;5005688;28;20463;-69
2021/09/05 08:53:15;;;;;;;35.47;33.07;;;21.00;72.00;;;;;;5006170;28;20464;-69
2021/09/05 08:55:44;;;;;;;35.00;32.80;;;21.10;71.50;;;;;;5006531;28;21214;-69
2021/09/05 08:58:12;;;;;;;32.20;30.10;;;21.20;71.40;;;;;;4996211;28;20482;-69
2021/09/05 09:00:39;;;;;;;33.33;31.03;;;21.20;71.30;;;;;;4994681;28;20474;-69
2021/09/05 09:03:06;;;;;;;34.93;32.73;;;21.30;71.30;;;;;;4993708;28;20920;-69
2021/09/05 09:05:35;;;;;;;33.53;31.43;;;21.40;71.00;;;;;;5000474;28;20450;-69
2021/09/05 09:08:04;;;;;;;32.60;30.50;;;21.50;70.90;;;;;;5001836;28;20887;-70
2021/09/05 09:10:31;;;;;;;32.40;30.10;;;21.60;70.50;;;;;;4998918;28;20453;-69
2021/09/05 09:13:00;;;;;;;33.47;31.37;;;21.70;70.10;;;;;;4995803;28;20461;-74
2021/09/05 09:15:29;;;;;;;32.47;30.47;;;21.80;69.90;;;;;;4994180;28;21299;-70
2021/09/05 09:17:58;;;;;;;33.90;31.53;;;21.90;69.50;;;;;;5001623;28;20491;-70
2021/09/05 09:20:37;;;;;;;31.40;29.43;;;21.90;69.30;;;;;;5002948;28;20458;-75
2021/09/05 09:23:13;;;;;;;33.20;31.10;;;22.10;69.00;;;;;;5000749;28;20534;-69
2021/09/05 09:25:49;;;;;;;31.63;29.73;;;22.20;68.40;;;;;;5003789;28;20568;-69
2021/09/05 09:28:26;;;;;;;31.03;28.93;;;22.40;67.70;;;;;;5003837;28;20476;-70
2021/09/05 09:30:53;;;;;;;33.07;31.07;;;22.50;67.40;;;;;;4995300;28;20457;-70
2021/09/05 09:33:24;;;;;;;33.83;31.60;;;22.60;66.70;;;;;;4992224;28;20472;-69
2021/09/05 09:35:52;;;;;;;33.40;31.17;;;22.50;66.30;;;;;;5006781;28;20485;-70
2021/09/05 09:38:20;;;;;;;32.03;29.93;;;22.70;65.90;;;;;;4993532;28;20488;-70
2021/09/05 09:40:48;;;;;;;33.73;31.53;;;22.80;65.50;;;;;;4995298;28;20557;-71
2021/09/05 09:43:23;;;;;;;31.33;29.30;;;23.10;64.20;;;;;;5001541;28;20461;-72
2021/09/05 09:45:52;;;;;;;30.80;28.87;;;23.30;62.80;;;;;;4999446;28;20472;-71
2021/09/05 09:48:24;;;;;;;31.00;29.20;;;23.50;61.40;;;;;;4996280;28;20563;-71
2021/09/05 09:50:58;;;;;;;32.87;30.77;;;23.70;61.30;;;;;;5005063;28;20458;-71
2021/09/05 09:53:27;;;;;;;33.80;31.70;;;23.90;61.10;;;;;;5008750;28;20534;-71
2021/09/05 09:55:57;;;;;;;31.70;29.80;;;23.90;61.30;;;;;;4992654;28;20474;-71
2021/09/05 09:58:24;;;;;;;32.17;30.17;;;24.00;61.20;;;;;;5002046;28;20491;-71
2021/09/05 10:00:54;;;;;;;32.83;30.83;;;24.10;60.70;;;;;;5003297;28;20983;-72
2021/09/05 10:03:23;;;;;;;33.87;31.97;;;24.10;60.40;;;;;;5001537;28;20449;-72
2021/09/05 10:05:54;;;;;;;31.33;29.33;;;24.10;59.70;;;;;;4999387;28;20539;-71
2021/09/05 10:08:22;;;;;;;31.57;29.47;;;24.10;59.80;;;;;;5001906;28;20930;-72
2021/09/05 10:10:49;;;;;;;31.47;29.47;;;24.20;59.50;;;;;;4995690;28;20476;-72
2021/09/05 10:13:16;;;;;;;32.97;30.87;;;24.20;59.70;;;;;;5007245;28;20461;-71
2021/09/05 10:15:44;;;;;;;31.43;29.53;;;24.30;59.20;;;;;;5001287;28;20509;-71
2021/09/05 10:18:13;;;;;;;31.43;29.43;;;24.20;58.90;;;;;;4999045;28;20481;-71
2021/09/05 10:20:40;;;;;;;31.67;29.60;;;24.30;60.00;;;;;;4994972;28;20835;-71
2021/09/05 10:23:07;;;;;;;34.70;32.50;;;24.40;59.60;;;;;;4999660;28;20519;-71
2021/09/05 10:25:37;;;;;;;31.33;29.10;;;24.50;59.30;;;;;;4997699;28;20548;-71
2021/09/05 10:28:05;;;;;;;32.10;30.03;;;24.60;58.90;;;;;;4996459;28;20472;-72
2021/09/05 10:30:32;;;;;;;31.73;29.83;;;24.80;58.70;;;;;;4997152;28;20944;-71
2021/09/05 10:33:01;;;;;;;33.67;31.57;;;24.80;58.20;;;;;;5002708;28;20459;-71
2021/09/05 10:35:40;;;;;;;31.57;29.60;;;24.80;57.00;;;;;;4998415;28;20947;-71
2021/09/05 10:38:32;;;;;;;31.53;29.63;;;24.80;58.00;;;;;;4997568;28;20494;-71
2021/09/05 10:41:01;;;;;;;33.00;30.57;;;24.90;56.40;;;;;;4995725;28;20467;-71
2021/09/05 10:44:05;;;;;;;31.60;29.80;;;24.80;56.00;;;;;;4993607;28;20972;-72
2021/09/05 10:46:36;;;;;;;31.80;29.80;;;24.80;56.60;;;;;;4987887;28;20456;-71
2021/09/05 10:49:05;;;;;;;32.03;30.13;;;24.80;56.30;;;;;;4991140;28;20516;-71
2021/09/05 10:51:37;;;;;;;29.90;28.10;;;24.80;55.90;;;;;;4993531;28;20457;-70
2021/09/05 10:54:07;;;;;;;32.33;30.33;;;24.90;56.00;;;;;;4997265;28;20559;-70
2021/09/05 10:56:35;;;;;;;29.70;28.00;;;24.80;55.40;;;;;;5001636;28;20484;-70
2021/09/05 10:59:05;;;;;;;32.83;30.80;;;24.80;55.40;;;;;;5002181;28;20487;-71
2021/09/05 11:01:34;;;;;;;29.43;27.73;;;24.80;54.50;;;;;;5006317;28;20460;-73
2021/09/05 11:04:29;;;;;;;30.30;28.50;;;24.80;55.10;;;;;;4998940;28;20991;-71
2021/09/05 11:07:03;;;;;;;29.30;27.47;;;24.90;54.70;;;;;;5009788;28;20461;-70
2021/09/05 11:09:49;;;;;;;32.20;30.30;;;24.90;54.10;;;;;;4994706;28;20473;-70
2021/09/05 11:12:33;;;;;;;31.03;29.23;;;25.10;53.90;;;;;;4996486;28;20463;-70
2021/09/05 11:15:15;;;;;;;30.00;28.10;;;25.20;53.20;;;;;;5002696;28;20456;-70
2021/09/05 11:17:42;;;;;;;30.23;28.40;;;25.20;50.80;;;;;;5003344;28;20886;-70
2021/09/05 11:20:10;;;;;;;29.87;27.97;;;25.20;50.20;;;;;;4992867;28;20481;-70
2021/09/05 11:22:43;;;;;;;29.60;27.90;;;25.30;50.70;;;;;;5003581;28;20463;-70
2021/09/05 11:25:19;;;;;;;33.50;31.70;;;25.30;50.50;;;;;;4998413;28;20548;-70
2021/09/05 11:27:52;;;;;;;30.77;28.87;;;25.20;51.70;;;;;;4995320;28;20484;-70
2021/09/05 11:30:19;;;;;;;29.00;27.40;;;25.20;50.30;;;;;;4998595;28;20469;-70
2021/09/05 11:32:48;;;;;;;33.90;31.87;;;25.20;51.30;;;;;;5000763;28;20473;-70
2021/09/05 11:35:15;;;;;;;31.23;29.53;;;25.20;51.30;;;;;;4990771;28;20456;-74
2021/09/05 11:37:45;;;;;;;32.87;31.00;;;25.30;51.60;;;;;;4993521;28;20488;-70
2021/09/05 11:40:14;;;;;;;31.80;29.80;;;25.30;51.10;;;;;;4998312;28;20581;-72
2021/09/05 11:42:46;;;;;;;33.47;31.27;;;25.40;50.00;;;;;;4997438;28;21781;-69
2021/09/05 11:45:14;;;;;;;30.20;28.40;;;25.50;49.70;;;;;;4992647;28;20480;-70
2021/09/05 11:47:42;;;;;;;30.57;28.77;;;25.60;49.10;;;;;;5000106;28;20458;-70
2021/09/05 11:50:11;;;;;;;30.77;28.97;;;25.70;49.00;;;;;;4998582;28;20510;-70
2021/09/05 11:52:39;;;;;;;33.63;31.63;;;25.80;49.30;;;;;;5005439;28;20452;-70
2021/09/05 11:55:09;;;;;;;31.77;29.87;;;25.80;49.90;;;;;;4997749;28;20469;-70
2021/09/05 11:57:37;;;;;;;34.23;31.70;;;26.00;50.40;;;;;;5003712;28;20480;-70
2021/09/05 12:00:07;;;;;;;31.90;29.90;;;26.00;49.10;;;;;;5001196;28;20507;-70
2021/09/05 12:02:35;;;;;;;30.97;29.17;;;25.90;48.50;;;;;;4996908;28;20471;-70
2021/09/05 12:05:07;;;;;;;31.27;29.40;;;25.90;47.10;;;;;;4998300;28;20815;-70
2021/09/05 12:07:40;;;;;;;32.73;30.77;;;25.90;47.90;;;;;;5003079;28;20678;-70
2021/09/05 12:10:11;;;;;;;31.73;29.87;;;25.90;48.70;;;;;;5001501;28;20480;-70
2021/09/05 12:12:39;;;;;;;31.80;29.87;;;26.00;48.80;;;;;;4991951;28;20458;-70
2021/09/05 12:15:17;;;;;;;32.63;30.63;;;26.10;48.40;;;;;;4996581;28;20468;-70
2021/09/05 12:17:46;;;;;;;32.20;30.30;;;26.20;47.80;;;;;;4997134;28;20482;-70
2021/09/05 12:20:14;;;;;;;31.73;29.83;;;26.30;47.10;;;;;;4996790;28;20463;-70
2021/09/05 12:22:42;;;;;;;31.13;29.33;;;26.30;46.90;;;;;;5005860;28;20461;-70
2021/09/05 12:25:21;;;;;;;32.33;30.23;;;26.40;47.70;;;;;;4993467;28;20465;-70
2021/09/05 12:27:59;;;;;;;32.50;30.53;;;26.60;48.00;;;;;;4988790;28;20457;-70
2021/09/05 12:30:29;;;;;;;30.20;28.40;;;26.80;47.30;;;;;;4997804;28;20453;-70
2021/09/05 12:33:10;;;;;;;31.90;30.00;;;27.00;46.50;;;;;;4995345;28;20464;-70